Terminal Aerodrome Forecast
Issued by NWS

Home | Current Version | Previous Version | Text Only | Print | Product List | Glossary On
Versions: 1 2 3 4 5 6 7 8 9 10 11 12 13 14 15 16 17 18 19 20 21 22 23 24 25 26 27 28 29 30 31
000
FTUS45 KPSR 251445 AAA
TAFPHX
TAF AMD
KPHX 251445Z 2515/2612 11007KT P6SM FEW070 BKN200
     FM251900 21014G22KT P6SM SCT060 BKN090
     FM252300 26019G30KT P6SM SCT050 BKN070
     FM260600 27015G28KT P6SM VCSH SCT050 OVC070
     FM260900 25014KT P6SM -TSRA SCT030 BKN040 OVC060CB=

USA.gov is the U.S. government's official web portal to all federal, state and local government web resources and services.